Time;durP1;ratioP1;P1;durP2;ratioP2;P2;SDS_P1;SDS_P2;PMS_P1;PMS_P2;Temp;Humidity;BMP_temperature;BMP_pressure;BME280_temperature;BME280_humidity;BME280_pressure;Samples;Min_cycle;Max_cycle;Signal;HPM_P1;HPM_P2
2024/01/15 00:02:08;;;;;;;114.03;84.63;;;;;;;;;;5085141;27;20043;-72
2024/01/15 00:04:40;;;;;;;77.60;58.35;;;;;;;;;;5093360;27;20446;-74
2024/01/15 00:07:06;;;;;;;137.77;104.47;;;;;;;;;;5100481;27;20046;-75
2024/01/15 00:09:31;;;;;;;97.18;74.10;;;;;;;;;;5091165;27;20042;-74
2024/01/15 00:11:56;;;;;;;62.00;48.25;;;;;;;;;;5121528;27;20038;-75
2024/01/15 00:14:22;;;;;;;42.45;33.50;;;;;;;;;;5121779;27;20023;-75
2024/01/15 00:16:50;;;;;;;182.85;141.63;;;;;;;;;;5104136;27;20035;-73
2024/01/15 00:19:15;;;;;;;134.30;106.10;;;;;;;;;;5114015;27;20055;-73
2024/01/15 00:21:41;;;;;;;108.47;85.25;;;;;;;;;;5101642;27;20162;-74
2024/01/15 00:24:06;;;;;;;126.53;102.05;;;;;;;;;;5103911;27;20168;-73
2024/01/15 00:26:31;;;;;;;132.48;102.60;;;;;;;;;;5091207;27;20440;-73
2024/01/15 00:28:57;;;;;;;61.72;48.90;;;;;;;;;;5103560;27;20015;-73
2024/01/15 00:31:22;;;;;;;46.25;37.03;;;;;;;;;;5085483;27;20077;-73
2024/01/15 00:33:47;;;;;;;42.33;33.63;;;;;;;;;;5083739;27;20034;-73
2024/01/15 00:36:14;;;;;;;223.65;167.00;;;;;;;;;;5101033;27;20034;-74
2024/01/15 00:38:39;;;;;;;174.50;130.75;;;;;;;;;;5099215;27;20503;-74
2024/01/15 00:41:05;;;;;;;133.73;103.38;;;;;;;;;;5102841;27;20120;-73
2024/01/15 00:43:30;;;;;;;142.00;112.30;;;;;;;;;;5099301;27;20118;-72
2024/01/15 00:45:55;;;;;;;115.97;94.60;;;;;;;;;;5083543;27;20080;-72
2024/01/15 00:48:21;;;;;;;82.55;66.10;;;;;;;;;;5101723;27;20079;-73
2024/01/15 00:50:46;;;;;;;56.72;45.58;;;;;;;;;;5112582;27;20167;-72
2024/01/15 00:53:11;;;;;;;88.80;72.55;;;;;;;;;;5100855;27;20056;-72
2024/01/15 00:55:37;;;;;;;101.00;78.35;;;;;;;;;;5099822;27;20084;-72
2024/01/15 00:58:03;;;;;;;77.03;60.15;;;;;;;;;;5097943;27;20422;-72
2024/01/15 01:00:28;;;;;;;50.03;38.33;;;;;;;;;;5100168;27;20443;-71
2024/01/15 01:02:53;;;;;;;144.60;112.30;;;;;;;;;;5099579;27;20032;-71
2024/01/15 01:05:19;;;;;;;180.98;140.45;;;;;;;;;;5098501;27;20023;-72
2024/01/15 01:07:44;;;;;;;79.05;60.78;;;;;;;;;;5096903;27;20042;-73
2024/01/15 01:10:10;;;;;;;44.30;35.47;;;;;;;;;;5102380;27;20425;-72
2024/01/15 01:12:36;;;;;;;200.40;160.40;;;;;;;;;;5096888;27;20042;-72
2024/01/15 01:15:01;;;;;;;180.00;142.95;;;;;;;;;;5100050;27;20047;-72
2024/01/15 01:17:26;;;;;;;129.95;105.50;;;;;;;;;;5101723;27;20110;-72
2024/01/15 01:19:52;;;;;;;98.68;77.00;;;;;;;;;;5078318;27;20110;-72
2024/01/15 01:22:17;;;;;;;89.75;71.47;;;;;;;;;;5099947;27;20023;-72
2024/01/15 01:24:42;;;;;;;82.57;66.28;;;;;;;;;;5100123;27;20127;-72
2024/01/15 01:27:08;;;;;;;59.22;49.65;;;;;;;;;;5099751;27;20042;-72
2024/01/15 01:29:33;;;;;;;81.28;63.88;;;;;;;;;;5098204;27;20031;-72
2024/01/15 01:31:58;;;;;;;53.90;45.25;;;;;;;;;;5099166;27;20121;-72
2024/01/15 01:34:24;;;;;;;47.42;37.67;;;;;;;;;;5101905;27;20015;-73
2024/01/15 01:36:49;;;;;;;52.63;43.90;;;;;;;;;;5097853;27;20038;-73
2024/01/15 01:39:15;;;;;;;66.32;50.22;;;;;;;;;;5096375;27;20030;-71
2024/01/15 01:41:40;;;;;;;60.63;43.55;;;;;;;;;;5102341;27;20131;-72
2024/01/15 01:44:06;;;;;;;39.03;32.47;;;;;;;;;;5088547;27;20631;-72
2024/01/15 01:46:31;;;;;;;34.53;30.10;;;;;;;;;;5094471;27;20077;-74
2024/01/15 01:48:57;;;;;;;34.85;30.83;;;;;;;;;;5096613;27;21242;-72
2024/01/15 01:51:22;;;;;;;36.83;31.33;;;;;;;;;;5100150;27;20365;-71
2024/01/15 01:53:48;;;;;;;31.75;27.83;;;;;;;;;;5103192;27;20023;-72
2024/01/15 01:56:14;;;;;;;44.08;38.90;;;;;;;;;;5082566;27;20162;-73
2024/01/15 01:58:40;;;;;;;32.55;28.92;;;;;;;;;;5098064;27;20093;-73
2024/01/15 02:01:05;;;;;;;45.45;37.08;;;;;;;;;;5082301;27;20027;-74
2024/01/15 02:03:30;;;;;;;29.60;23.95;;;;;;;;;;5099168;27;20019;-72
2024/01/15 02:05:56;;;;;;;31.50;22.92;;;;;;;;;;5097785;27;20027;-71
2024/01/15 02:08:22;;;;;;;22.30;19.08;;;;;;;;;;5099098;27;20030;-73
2024/01/15 02:10:47;;;;;;;24.17;19.20;;;;;;;;;;5079336;27;20063;-72
2024/01/15 02:13:13;;;;;;;19.17;16.42;;;;;;;;;;5098989;27;20019;-73
2024/01/15 02:15:38;;;;;;;20.95;16.77;;;;;;;;;;5097790;27;20027;-74
2024/01/15 02:18:04;;;;;;;20.65;16.80;;;;;;;;;;5075356;28;20763;-72
2024/01/15 02:20:30;;;;;;;16.95;14.43;;;;;;;;;;5100294;27;20055;-71
2024/01/15 02:23:12;;;;;;;18.65;15.43;;;;;;;;;;5100808;28;20119;-73
2024/01/15 02:25:45;;;;;;;27.15;21.83;;;;;;;;;;5086970;27;20023;-73
2024/01/15 02:28:11;;;;;;;58.03;47.83;;;;;;;;;;5098789;28;20582;-71
2024/01/15 02:30:40;;;;;;;49.53;44.05;;;;;;;;;;5100910;28;20055;-71
2024/01/15 02:33:05;;;;;;;42.27;35.73;;;;;;;;;;5077066;28;20019;-71
2024/01/15 02:35:31;;;;;;;33.00;29.33;;;;;;;;;;5098159;28;20362;-71
2024/01/15 02:37:56;;;;;;;27.20;22.80;;;;;;;;;;5101283;28;20019;-71
2024/01/15 02:40:22;;;;;;;21.75;18.92;;;;;;;;;;5096027;27;20030;-73
2024/01/15 02:42:47;;;;;;;81.53;65.50;;;;;;;;;;5100338;27;20042;-73
2024/01/15 02:45:13;;;;;;;97.15;80.90;;;;;;;;;;5088911;27;20134;-72
2024/01/15 02:47:38;;;;;;;83.10;70.30;;;;;;;;;;5103862;27;20031;-71
2024/01/15 02:50:04;;;;;;;124.32;102.65;;;;;;;;;;5102118;27;20102;-72
2024/01/15 02:52:29;;;;;;;168.23;140.60;;;;;;;;;;5101248;27;20035;-72
2024/01/15 02:54:54;;;;;;;166.60;137.52;;;;;;;;;;5082061;27;20457;-71
2024/01/15 02:57:20;;;;;;;166.63;136.38;;;;;;;;;;5080332;27;20035;-71
2024/01/15 02:59:45;;;;;;;170.98;140.18;;;;;;;;;;5101305;27;20020;-72
2024/01/15 03:02:10;;;;;;;139.70;110.03;;;;;;;;;;5101907;27;20037;-72
2024/01/15 03:04:35;;;;;;;119.78;94.05;;;;;;;;;;5083065;27;20470;-72
2024/01/15 03:07:01;;;;;;;115.43;93.10;;;;;;;;;;5102836;27;20346;-72
2024/01/15 03:09:26;;;;;;;166.10;136.85;;;;;;;;;;5106176;27;20084;-72
2024/01/15 03:11:51;;;;;;;152.18;125.47;;;;;;;;;;5087774;27;20051;-72
2024/01/15 03:14:17;;;;;;;129.05;104.45;;;;;;;;;;5124486;27;20042;-74
2024/01/15 03:16:42;;;;;;;98.68;80.40;;;;;;;;;;5122624;27;20423;-71
2024/01/15 03:19:07;;;;;;;101.70;80.38;;;;;;;;;;5109839;27;20107;-71
2024/01/15 03:21:33;;;;;;;100.72;79.05;;;;;;;;;;5108495;27;20110;-71
2024/01/15 03:23:58;;;;;;;98.60;81.78;;;;;;;;;;5120875;27;20027;-72
2024/01/15 03:26:23;;;;;;;106.97;86.22;;;;;;;;;;5120918;27;20035;-72
2024/01/15 03:28:49;;;;;;;96.85;77.82;;;;;;;;;;5119681;27;20015;-72
2024/01/15 03:31:14;;;;;;;127.43;105.97;;;;;;;;;;5121845;27;20027;-71
2024/01/15 03:33:39;;;;;;;133.10;112.15;;;;;;;;;;5120162;27;20418;-73
2024/01/15 03:36:05;;;;;;;116.80;95.35;;;;;;;;;;5106954;27;20027;-71
2024/01/15 03:38:30;;;;;;;104.35;87.32;;;;;;;;;;5115698;27;20064;-73
2024/01/15 03:40:56;;;;;;;98.25;81.47;;;;;;;;;;5107852;27;20023;-71
2024/01/15 03:43:21;;;;;;;93.70;74.68;;;;;;;;;;5106452;27;20084;-73
2024/01/15 03:45:46;;;;;;;66.97;53.60;;;;;;;;;;5104460;27;20027;-73
2024/01/15 03:48:12;;;;;;;78.13;64.18;;;;;;;;;;5100784;27;20046;-72
2024/01/15 03:50:37;;;;;;;74.72;59.15;;;;;;;;;;5119316;27;20038;-72
2024/01/15 03:53:02;;;;;;;70.93;57.55;;;;;;;;;;5108593;27;20107;-72
2024/01/15 03:55:28;;;;;;;65.53;49.63;;;;;;;;;;5099083;27;20105;-73
2024/01/15 03:57:53;;;;;;;71.10;54.50;;;;;;;;;;5103677;27;20042;-74
2024/01/15 04:00:19;;;;;;;56.83;46.95;;;;;;;;;;5111313;27;20027;-72
2024/01/15 04:02:44;;;;;;;51.85;44.78;;;;;;;;;;5101493;27;20134;-72
2024/01/15 04:05:10;;;;;;;57.80;49.13;;;;;;;;;;5120272;27;20033;-72
2024/01/15 04:07:35;;;;;;;55.72;48.70;;;;;;;;;;5120900;27;20028;-72
2024/01/15 04:10:00;;;;;;;59.58;48.97;;;;;;;;;;5110247;27;20053;-72
2024/01/15 04:12:26;;;;;;;61.15;43.50;;;;;;;;;;5115057;27;20023;-73
2024/01/15 04:14:51;;;;;;;45.08;35.30;;;;;;;;;;5102333;27;20058;-72
2024/01/15 04:17:17;;;;;;;43.15;37.10;;;;;;;;;;5116878;27;20023;-72
2024/01/15 04:19:46;;;;;;;70.97;60.25;;;;;;;;;;5119294;27;20114;-72
2024/01/15 04:22:11;;;;;;;61.05;51.92;;;;;;;;;;5120913;27;20711;-72
2024/01/15 04:24:37;;;;;;;95.55;82.28;;;;;;;;;;5117641;27;20035;-72
2024/01/15 04:27:02;;;;;;;60.90;53.78;;;;;;;;;;5117273;27;20038;-72
2024/01/15 04:29:27;;;;;;;36.33;31.27;;;;;;;;;;5119351;27;20026;-73
2024/01/15 04:31:53;;;;;;;24.50;21.55;;;;;;;;;;5117252;27;20069;-73
2024/01/15 04:34:18;;;;;;;23.83;21.17;;;;;;;;;;5106995;27;20042;-74
2024/01/15 04:36:43;;;;;;;35.67;29.60;;;;;;;;;;5103654;27;20019;-73
2024/01/15 04:39:09;;;;;;;40.97;35.67;;;;;;;;;;5116527;27;20087;-73
2024/01/15 04:41:34;;;;;;;52.03;41.92;;;;;;;;;;5102183;27;20467;-73
2024/01/15 04:44:01;;;;;;;47.72;41.42;;;;;;;;;;5101567;27;20434;-73
2024/01/15 04:46:26;;;;;;;51.67;42.88;;;;;;;;;;5117604;27;20027;-73
2024/01/15 04:48:51;;;;;;;63.40;55.35;;;;;;;;;;5117693;27;20423;-73
2024/01/15 04:51:17;;;;;;;51.17;45.20;;;;;;;;;;5100692;27;20052;-73
2024/01/15 04:53:42;;;;;;;50.90;39.10;;;;;;;;;;5099246;27;20173;-74
2024/01/15 04:56:07;;;;;;;42.08;36.20;;;;;;;;;;5103222;27;20047;-73
2024/01/15 04:58:33;;;;;;;57.45;51.28;;;;;;;;;;5083226;27;20019;-72
2024/01/15 05:00:58;;;;;;;64.63;55.78;;;;;;;;;;5101650;27;20024;-72
2024/01/15 05:03:24;;;;;;;451.50;335.63;;;;;;;;;;5104422;27;20027;-72
2024/01/15 05:05:49;;;;;;;176.23;130.57;;;;;;;;;;5105276;27;20019;-72
2024/01/15 05:08:14;;;;;;;97.05;74.28;;;;;;;;;;5113362;27;20414;-73
2024/01/15 05:10:40;;;;;;;62.90;48.35;;;;;;;;;;5109884;27;20059;-72
2024/01/15 05:13:05;;;;;;;57.55;42.88;;;;;;;;;;5116742;27;20035;-73
2024/01/15 05:15:30;;;;;;;49.15;36.70;;;;;;;;;;5114909;27;20024;-72
2024/01/15 05:17:56;;;;;;;412.08;329.38;;;;;;;;;;5093474;27;20031;-72
2024/01/15 05:20:21;;;;;;;124.25;89.55;;;;;;;;;;5125083;27;20019;-72
2024/01/15 05:22:47;;;;;;;215.48;145.32;;;;;;;;;;5105196;27;20031;-72
2024/01/15 05:25:12;;;;;;;195.98;123.82;;;;;;;;;;5106046;27;20479;-72
2024/01/15 05:27:37;;;;;;;530.90;337.70;;;;;;;;;;5117297;27;20028;-72
2024/01/15 05:30:03;;;;;;;412.73;289.63;;;;;;;;;;5117054;27;20032;-73
2024/01/15 05:32:29;;;;;;;285.27;219.27;;;;;;;;;;5118594;27;20069;-72
2024/01/15 05:34:54;;;;;;;169.38;128.35;;;;;;;;;;5097920;27;20059;-72
2024/01/15 05:37:20;;;;;;;612.03;544.78;;;;;;;;;;5105706;27;20019;-72
2024/01/15 05:39:45;;;;;;;171.02;136.98;;;;;;;;;;5099859;27;20034;-72
2024/01/15 05:42:10;;;;;;;139.32;109.75;;;;;;;;;;5118041;27;20114;-72
2024/01/15 05:44:36;;;;;;;93.63;73.15;;;;;;;;;;5118078;27;20027;-73
2024/01/15 05:47:01;;;;;;;67.45;57.03;;;;;;;;;;5116461;27;20421;-72
2024/01/15 05:49:26;;;;;;;53.22;45.90;;;;;;;;;;5102015;27;20509;-72
2024/01/15 05:51:52;;;;;;;118.05;97.78;;;;;;;;;;5089271;27;20027;-72
2024/01/15 05:54:18;;;;;;;88.80;79.22;;;;;;;;;;5087710;27;20027;-73
2024/01/15 05:56:44;;;;;;;52.40;46.38;;;;;;;;;;5093861;27;20891;-72
2024/01/15 05:59:09;;;;;;;77.88;69.60;;;;;;;;;;5115842;27;20076;-72
2024/01/15 06:01:34;;;;;;;97.20;86.72;;;;;;;;;;5118439;27;20350;-73
2024/01/15 06:04:00;;;;;;;65.35;57.33;;;;;;;;;;5116498;27;20027;-72
2024/01/15 06:06:25;;;;;;;59.35;49.83;;;;;;;;;;5117911;27;20072;-72
2024/01/15 06:08:50;;;;;;;53.30;46.58;;;;;;;;;;5116205;27;20473;-72
2024/01/15 06:11:16;;;;;;;76.90;68.63;;;;;;;;;;5114446;27;20085;-73
2024/01/15 06:13:42;;;;;;;111.85;99.97;;;;;;;;;;5098868;27;20120;-72
2024/01/15 06:16:19;;;;;;;84.72;75.38;;;;;;;;;;5108189;27;20438;-72
2024/01/15 06:18:44;;;;;;;108.35;90.20;;;;;;;;;;5118540;27;20130;-72
2024/01/15 06:21:12;;;;;;;73.82;59.90;;;;;;;;;;5099928;28;20405;-72
2024/01/15 06:23:38;;;;;;;52.72;44.72;;;;;;;;;;5117103;27;20115;-72
2024/01/15 06:26:03;;;;;;;68.50;61.25;;;;;;;;;;5117122;27;20055;-72
2024/01/15 06:28:29;;;;;;;132.13;116.38;;;;;;;;;;5112718;27;20107;-72
2024/01/15 06:30:54;;;;;;;158.98;134.45;;;;;;;;;;5105437;28;20034;-72
2024/01/15 06:33:19;;;;;;;142.40;123.65;;;;;;;;;;5119468;28;20458;-73
2024/01/15 06:35:45;;;;;;;98.70;83.80;;;;;;;;;;5117632;28;20026;-72
2024/01/15 06:38:10;;;;;;;54.17;48.13;;;;;;;;;;5116168;28;20019;-73
2024/01/15 06:40:35;;;;;;;63.33;56.63;;;;;;;;;;5115518;28;20038;-76
2024/01/15 06:43:01;;;;;;;189.27;166.95;;;;;;;;;;5116593;28;20054;-76
2024/01/15 06:45:26;;;;;;;271.38;234.43;;;;;;;;;;5113107;28;20026;-75
2024/01/15 06:47:51;;;;;;;266.60;237.43;;;;;;;;;;5097776;28;20062;-77
2024/01/15 06:50:17;;;;;;;212.82;177.15;;;;;;;;;;5096191;28;20035;-76
2024/01/15 06:52:42;;;;;;;153.95;132.73;;;;;;;;;;5108672;28;20027;-75
2024/01/15 06:55:08;;;;;;;200.82;175.05;;;;;;;;;;5118789;28;20027;-75
2024/01/15 06:57:33;;;;;;;215.25;191.48;;;;;;;;;;5116125;28;20019;-76
2024/01/15 06:59:58;;;;;;;370.75;282.13;;;;;;;;;;5115439;28;20030;-77
2024/01/15 07:02:24;;;;;;;431.90;332.48;;;;;;;;;;5117316;28;20080;-72
2024/01/15 07:04:49;;;;;;;210.95;183.40;;;;;;;;;;5115728;28;20027;-73
2024/01/15 07:07:15;;;;;;;163.68;141.75;;;;;;;;;;5098367;28;20019;-72
2024/01/15 07:09:41;;;;;;;202.63;177.65;;;;;;;;;;5117517;28;20046;-72
2024/01/15 07:12:06;;;;;;;161.30;139.43;;;;;;;;;;5112196;28;20036;-72
2024/01/15 07:14:31;;;;;;;105.35;89.05;;;;;;;;;;5116856;28;20054;-71
2024/01/15 07:16:57;;;;;;;103.80;88.80;;;;;;;;;;5116108;28;20027;-72
2024/01/15 07:19:22;;;;;;;105.80;94.22;;;;;;;;;;5117491;28;20073;-73
2024/01/15 07:21:47;;;;;;;233.48;208.73;;;;;;;;;;5114305;28;20050;-73
2024/01/15 07:24:13;;;;;;;291.65;255.32;;;;;;;;;;5113741;28;20034;-73
2024/01/15 07:26:38;;;;;;;210.45;187.32;;;;;;;;;;5115097;27;20031;-73
2024/01/15 07:29:04;;;;;;;200.60;178.07;;;;;;;;;;5121573;27;20111;-72
2024/01/15 07:31:29;;;;;;;333.52;298.67;;;;;;;;;;5119998;27;20036;-72
2024/01/15 07:33:54;;;;;;;286.75;256.35;;;;;;;;;;5116965;27;20020;-72
2024/01/15 07:36:20;;;;;;;225.65;201.07;;;;;;;;;;5118885;27;20528;-71
2024/01/15 07:38:45;;;;;;;208.27;176.40;;;;;;;;;;5107406;27;20023;-71
2024/01/15 07:41:11;;;;;;;325.17;287.75;;;;;;;;;;5121756;27;20027;-74
2024/01/15 07:43:37;;;;;;;261.77;232.82;;;;;;;;;;5120582;27;20117;-74
2024/01/15 07:46:03;;;;;;;289.08;254.65;;;;;;;;;;5120560;27;20026;-72
2024/01/15 07:48:28;;;;;;;380.90;339.00;;;;;;;;;;5120770;27;20026;-73
2024/01/15 07:50:53;;;;;;;326.10;291.38;;;;;;;;;;5118758;27;20027;-73
2024/01/15 07:53:19;;;;;;;261.00;233.20;;;;;;;;;;5106029;27;20019;-73
2024/01/15 07:55:46;;;;;;;213.90;190.80;;;;;;;;;;5121320;27;20031;-72
2024/01/15 07:58:11;;;;;;;282.85;252.57;;;;;;;;;;5119007;27;20034;-73
2024/01/15 08:00:36;;;;;;;213.50;190.50;;;;;;;;;;5118561;27;20027;-73
2024/01/15 08:03:02;;;;;;;143.38;127.32;;;;;;;;;;5101482;27;20042;-74
2024/01/15 08:05:28;;;;;;;96.93;86.60;;;;;;;;;;5119972;27;20027;-74
2024/01/15 08:07:53;;;;;;;156.02;138.75;;;;;;;;;;5097082;27;20031;-73
2024/01/15 08:10:18;;;;;;;241.10;214.48;;;;;;;;;;5119590;27;20120;-74
2024/01/15 08:12:44;;;;;;;263.35;234.75;;;;;;;;;;5119932;27;20035;-74
2024/01/15 08:15:09;;;;;;;106.95;95.28;;;;;;;;;;5119391;27;20019;-72
2024/01/15 08:17:35;;;;;;;113.22;95.93;;;;;;;;;;5117811;27;20396;-72
2024/01/15 08:20:01;;;;;;;139.57;120.68;;;;;;;;;;5104289;27;20088;-73
2024/01/15 08:22:26;;;;;;;331.73;271.92;;;;;;;;;;5116447;27;20126;-72
2024/01/15 08:24:52;;;;;;;250.73;205.02;;;;;;;;;;5120653;27;20110;-73
2024/01/15 08:27:17;;;;;;;113.28;100.80;;;;;;;;;;5118639;27;20039;-73
2024/01/15 08:29:42;;;;;;;256.05;226.13;;;;;;;;;;5120414;27;20480;-72
2024/01/15 08:32:13;;;;;;;121.53;103.82;;;;;;;;;;5119093;27;20430;-72
2024/01/15 08:34:39;;;;;;;44.28;39.47;;;;;;;;;;5119505;27;20015;-72
2024/01/15 08:37:04;;;;;;;40.75;36.47;;;;;;;;;;5116798;27;20708;-72
2024/01/15 08:39:29;;;;;;;86.97;79.30;;;;;;;;;;5117691;27;20050;-72
2024/01/15 08:41:55;;;;;;;66.00;59.72;;;;;;;;;;5120033;27;20027;-73
2024/01/15 08:44:20;;;;;;;69.85;62.45;;;;;;;;;;5120096;27;20019;-73
2024/01/15 08:46:45;;;;;;;108.35;94.03;;;;;;;;;;5117106;27;20028;-72
2024/01/15 08:49:11;;;;;;;112.53;100.20;;;;;;;;;;5115459;27;20435;-73
2024/01/15 08:51:37;;;;;;;106.50;90.35;;;;;;;;;;5120143;27;20173;-73
2024/01/15 08:54:03;;;;;;;64.10;57.25;;;;;;;;;;5119511;27;20467;-73
2024/01/15 08:56:28;;;;;;;36.53;32.70;;;;;;;;;;5119468;27;20051;-73
2024/01/15 08:58:54;;;;;;;45.83;41.22;;;;;;;;;;5118681;27;20031;-72
2024/01/15 09:01:19;;;;;;;38.53;31.02;;;;;;;;;;5118824;27;20078;-73
2024/01/15 09:03:46;;;;;;;12.52;11.05;;;;;;;;;;5116328;27;20079;-73
2024/01/15 09:06:11;;;;;;;24.08;21.08;;;;;;;;;;5100823;27;20331;-73
2024/01/15 09:08:37;;;;;;;28.27;25.30;;;;;;;;;;5117087;27;20019;-73
2024/01/15 09:11:03;;;;;;;78.57;68.90;;;;;;;;;;5119727;27;20047;-73
2024/01/15 09:13:28;;;;;;;93.10;82.95;;;;;;;;;;5116472;27;20023;-73
2024/01/15 09:15:54;;;;;;;64.03;54.85;;;;;;;;;;5114829;27;20366;-72
2024/01/15 09:18:19;;;;;;;31.38;28.08;;;;;;;;;;5120067;27;20027;-73
2024/01/15 09:20:44;;;;;;;79.45;71.03;;;;;;;;;;5114981;27;20027;-72
2024/01/15 09:23:10;;;;;;;97.13;86.75;;;;;;;;;;5116329;27;20365;-73
2024/01/15 09:25:35;;;;;;;90.18;80.57;;;;;;;;;;5118316;27;20077;-72
2024/01/15 09:28:00;;;;;;;61.00;50.35;;;;;;;;;;5096536;27;20023;-72
2024/01/15 09:30:26;;;;;;;106.38;90.68;;;;;;;;;;5119127;27;20027;-73
2024/01/15 09:32:51;;;;;;;106.75;91.82;;;;;;;;;;5110685;27;20332;-73
2024/01/15 09:35:17;;;;;;;154.73;130.60;;;;;;;;;;5107642;27;20057;-73
2024/01/15 09:37:42;;;;;;;93.47;81.70;;;;;;;;;;5111279;27;20035;-72
2024/01/15 09:40:08;;;;;;;29.13;24.95;;;;;;;;;;5101750;27;20023;-73
2024/01/15 09:42:34;;;;;;;52.28;43.67;;;;;;;;;;5105770;27;20095;-72
2024/01/15 09:45:00;;;;;;;107.93;91.55;;;;;;;;;;5100440;27;20055;-75
2024/01/15 09:47:25;;;;;;;106.47;89.82;;;;;;;;;;5104281;27;20037;-74
2024/01/15 09:49:50;;;;;;;84.75;71.18;;;;;;;;;;5101708;27;20034;-74
2024/01/15 09:52:18;;;;;;;80.47;70.00;;;;;;;;;;5100463;27;20037;-73
2024/01/15 09:54:43;;;;;;;39.65;35.42;;;;;;;;;;5102343;27;20031;-73
2024/01/15 09:57:09;;;;;;;37.38;33.60;;;;;;;;;;5108146;27;20061;-73
2024/01/15 09:59:36;;;;;;;43.83;39.33;;;;;;;;;;5102475;27;20355;-75
2024/01/15 10:02:01;;;;;;;47.47;41.67;;;;;;;;;;5098141;27;20034;-75
2024/01/15 10:04:27;;;;;;;60.40;53.83;;;;;;;;;;5101311;27;20045;-75
2024/01/15 10:06:53;;;;;;;56.20;50.00;;;;;;;;;;5100014;27;20629;-75
2024/01/15 10:09:18;;;;;;;68.80;58.50;;;;;;;;;;5100558;27;20030;-73
2024/01/15 10:11:44;;;;;;;79.43;66.80;;;;;;;;;;5102593;27;20051;-73
2024/01/15 10:14:13;;;;;;;80.00;67.72;;;;;;;;;;5116798;27;20443;-74
2024/01/15 10:16:41;;;;;;;135.00;89.57;;;;;;;;;;5107209;27;20019;-74
2024/01/15 10:19:10;;;;;;;99.15;77.70;;;;;;;;;;5098314;27;20025;-73
2024/01/15 10:21:35;;;;;;;46.33;37.03;;;;;;;;;;5099392;27;20105;-74
2024/01/15 10:24:02;;;;;;;97.93;72.85;;;;;;;;;;5113235;27;20425;-73
2024/01/15 10:26:28;;;;;;;189.90;138.90;;;;;;;;;;5116651;27;20035;-73
2024/01/15 10:28:53;;;;;;;175.68;130.38;;;;;;;;;;5116392;27;20026;-74
2024/01/15 10:31:19;;;;;;;36.10;29.30;;;;;;;;;;5113529;27;20095;-73
2024/01/15 10:33:45;;;;;;;253.10;207.85;;;;;;;;;;5096261;28;20038;-74
2024/01/15 10:36:11;;;;;;;189.45;145.88;;;;;;;;;;5098685;27;20023;-73
2024/01/15 10:38:36;;;;;;;168.88;125.55;;;;;;;;;;5099609;28;20385;-74
2024/01/15 10:41:02;;;;;;;107.20;90.53;;;;;;;;;;5115233;28;20027;-73
2024/01/15 10:43:27;;;;;;;71.13;63.95;;;;;;;;;;5099267;28;20023;-74
2024/01/15 10:45:52;;;;;;;45.80;41.15;;;;;;;;;;5114470;28;20023;-74
2024/01/15 10:48:19;;;;;;;52.35;47.13;;;;;;;;;;5100135;28;20038;-73
2024/01/15 10:50:45;;;;;;;68.28;52.15;;;;;;;;;;5103112;28;20031;-74
2024/01/15 10:53:11;;;;;;;164.60;113.85;;;;;;;;;;5096982;28;20027;-73
2024/01/15 10:55:37;;;;;;;87.00;62.08;;;;;;;;;;5097889;28;20077;-73
2024/01/15 10:58:03;;;;;;;61.95;46.95;;;;;;;;;;5103266;28;20088;-73
2024/01/15 11:00:29;;;;;;;48.03;36.17;;;;;;;;;;5109904;28;20072;-73
2024/01/15 11:02:55;;;;;;;131.18;103.38;;;;;;;;;;5103267;27;20380;-73
2024/01/15 11:05:22;;;;;;;81.57;66.53;;;;;;;;;;5102451;27;20323;-73
2024/01/15 11:07:48;;;;;;;55.40;46.38;;;;;;;;;;5115262;27;20031;-73
2024/01/15 11:10:49;;;;;;;97.90;79.25;;;;;;;;;;5102785;27;20043;-73
2024/01/15 11:13:21;;;;;;;75.35;59.97;;;;;;;;;;5004057;28;20034;-75
2024/01/15 11:15:57;;;;;;;82.70;63.70;;;;;;;;;;5005010;28;20431;-75
2024/01/15 11:18:22;;;;;;;158.45;116.00;;;;;;;;;;5004779;28;20503;-73
2024/01/15 11:21:06;;;;;;;99.85;72.18;;;;;;;;;;5014370;28;20045;-72
2024/01/15 11:23:46;;;;;;;84.40;58.30;;;;;;;;;;5005621;28;20041;-72
2024/01/15 11:26:27;;;;;;;74.93;50.70;;;;;;;;;;5010331;28;20064;-74
2024/01/15 11:28:52;;;;;;;91.68;69.45;;;;;;;;;;5013628;28;20551;-74
2024/01/15 11:31:18;;;;;;;95.53;67.00;;;;;;;;;;5009278;28;20033;-74
2024/01/15 11:33:49;;;;;;;99.97;80.20;;;;;;;;;;5012936;28;20069;-75
2024/01/15 11:36:15;;;;;;;63.25;54.97;;;;;;;;;;5010034;28;20041;-72
2024/01/15 11:38:40;;;;;;;64.28;57.33;;;;;;;;;;5011313;28;20038;-73
2024/01/15 11:41:18;;;;;;;58.70;52.38;;;;;;;;;;5008453;28;20049;-72
2024/01/15 11:43:43;;;;;;;78.22;65.13;;;;;;;;;;5010507;28;20021;-74
2024/01/15 11:46:14;;;;;;;87.65;72.90;;;;;;;;;;5017161;27;20029;-74
2024/01/15 11:48:46;;;;;;;99.03;83.18;;;;;;;;;;5121511;27;20023;-73
2024/01/15 11:51:12;;;;;;;122.63;100.10;;;;;;;;;;5120496;27;20430;-73
2024/01/15 11:53:40;;;;;;;94.45;75.88;;;;;;;;;;5117623;27;20133;-73
2024/01/15 11:56:11;;;;;;;222.65;143.00;;;;;;;;;;5118025;27;20031;-74
2024/01/15 11:58:37;;;;;;;110.38;75.93;;;;;;;;;;5119578;27;20033;-74
2024/01/15 12:01:02;;;;;;;208.40;145.15;;;;;;;;;;5121082;27;20019;-74
2024/01/15 12:03:28;;;;;;;186.57;113.82;;;;;;;;;;5117444;27;20338;-73
2024/01/15 12:05:53;;;;;;;282.38;158.25;;;;;;;;;;5121498;27;20031;-74
2024/01/15 12:08:22;;;;;;;209.30;110.43;;;;;;;;;;5119562;27;20027;-73
2024/01/15 12:10:47;;;;;;;372.35;167.85;;;;;;;;;;5120679;27;20047;-73
2024/01/15 12:13:14;;;;;;;300.20;134.45;;;;;;;;;;5119847;27;20042;-74
2024/01/15 12:15:41;;;;;;;289.80;140.70;;;;;;;;;;5120705;27;20034;-73
2024/01/15 12:18:07;;;;;;;359.98;185.95;;;;;;;;;;5116958;27;20158;-73
2024/01/15 12:20:33;;;;;;;219.30;113.22;;;;;;;;;;5115800;27;20031;-73
2024/01/15 12:22:59;;;;;;;248.90;125.82;;;;;;;;;;5118259;27;20866;-72
2024/01/15 12:25:25;;;;;;;188.30;91.93;;;;;;;;;;5117792;27;20092;-73
2024/01/15 12:27:51;;;;;;;161.25;81.38;;;;;;;;;;5117098;27;20434;-73
2024/01/15 12:30:16;;;;;;;224.57;110.32;;;;;;;;;;5121580;27;20122;-73
2024/01/15 12:32:42;;;;;;;187.73;95.22;;;;;;;;;;5118514;27;20164;-73
2024/01/15 12:35:08;;;;;;;197.15;105.70;;;;;;;;;;5118810;27;20054;-73
2024/01/15 12:37:37;;;;;;;109.60;62.42;;;;;;;;;;5120716;27;20012;-74
2024/01/15 12:40:04;;;;;;;120.07;72.45;;;;;;;;;;5119627;27;20023;-73
2024/01/15 12:42:29;;;;;;;85.28;53.33;;;;;;;;;;5120431;27;20353;-74
2024/01/15 12:44:56;;;;;;;75.85;48.55;;;;;;;;;;5119959;27;20034;-73
2024/01/15 12:47:21;;;;;;;76.88;50.05;;;;;;;;;;5118899;27;20172;-73
2024/01/15 12:49:50;;;;;;;111.75;75.05;;;;;;;;;;5120069;27;20963;-73
2024/01/15 12:52:15;;;;;;;107.93;73.03;;;;;;;;;;5117388;27;20031;-73
2024/01/15 12:54:41;;;;;;;78.68;55.90;;;;;;;;;;5117757;27;20498;-73
2024/01/15 12:57:06;;;;;;;148.90;104.38;;;;;;;;;;5120556;27;20031;-73
2024/01/15 12:59:31;;;;;;;88.50;64.25;;;;;;;;;;5119620;27;20049;-73
2024/01/15 13:01:57;;;;;;;82.78;62.33;;;;;;;;;;5116952;27;20035;-73
2024/01/15 13:04:23;;;;;;;109.50;85.78;;;;;;;;;;5119751;27;20445;-73
2024/01/15 13:06:49;;;;;;;70.30;57.53;;;;;;;;;;5118724;27;20337;-73
2024/01/15 13:09:14;;;;;;;60.55;51.03;;;;;;;;;;5118243;27;20145;-73
2024/01/15 13:11:40;;;;;;;64.57;49.45;;;;;;;;;;5120147;27;20570;-73
2024/01/15 13:14:05;;;;;;;55.85;44.00;;;;;;;;;;5116300;27;20038;-73
2024/01/15 13:16:31;;;;;;;82.97;63.42;;;;;;;;;;5118975;27;20042;-74
2024/01/15 13:18:56;;;;;;;62.40;51.83;;;;;;;;;;5118468;27;20028;-74
2024/01/15 13:21:22;;;;;;;73.63;50.20;;;;;;;;;;5116379;27;20556;-75
2024/01/15 13:23:47;;;;;;;122.22;79.18;;;;;;;;;;5117003;27;20437;-72
2024/01/15 13:26:13;;;;;;;56.72;40.65;;;;;;;;;;5120279;27;20544;-73
2024/01/15 13:28:38;;;;;;;47.63;37.03;;;;;;;;;;5118184;27;20049;-74
2024/01/15 13:31:04;;;;;;;55.85;44.75;;;;;;;;;;5115263;27;20031;-74
2024/01/15 13:33:30;;;;;;;62.10;45.30;;;;;;;;;;5118152;27;20307;-75
2024/01/15 13:35:55;;;;;;;52.38;41.28;;;;;;;;;;5117937;27;20452;-72
2024/01/15 13:38:20;;;;;;;77.07;56.70;;;;;;;;;;5117331;27;20023;-72
2024/01/15 13:40:46;;;;;;;171.93;119.95;;;;;;;;;;5117647;27;20046;-73
2024/01/15 13:43:13;;;;;;;246.10;154.80;;;;;;;;;;5119638;27;20510;-72
2024/01/15 13:45:39;;;;;;;216.95;139.55;;;;;;;;;;5117422;27;20091;-73
2024/01/15 13:48:08;;;;;;;177.95;127.47;;;;;;;;;;5117061;27;20031;-74
2024/01/15 13:50:34;;;;;;;138.57;103.00;;;;;;;;;;5117044;27;20058;-72
2024/01/15 13:53:00;;;;;;;63.35;47.38;;;;;;;;;;5118607;27;20027;-74
2024/01/15 13:55:25;;;;;;;36.70;30.63;;;;;;;;;;5119602;27;20031;-73
2024/01/15 13:57:50;;;;;;;120.90;93.30;;;;;;;;;;5118832;27;20023;-72
2024/01/15 14:00:18;;;;;;;86.45;71.60;;;;;;;;;;5119063;27;20174;-73
2024/01/15 14:02:44;;;;;;;96.07;84.28;;;;;;;;;;5099335;27;20353;-74